createdAt,value
2022-10-20T11:33:02.909Z,15.80
2022-10-20T11:35:36.803Z,17.20
2022-10-20T11:38:15.934Z,17.10
2022-10-20T11:40:48.798Z,17.20
2022-10-20T11:43:24.615Z,17.40
2022-10-20T11:45:56.868Z,17.50
2022-10-20T11:48:31.542Z,17.40
2022-10-20T11:51:31.958Z,17.50
2022-10-20T11:54:15.032Z,17.70
2022-10-20T11:57:06.280Z,17.90
2022-10-20T12:00:11.645Z,18.00
2022-10-20T12:03:06.481Z,18.10
2022-10-20T12:05:56.946Z,18.10
2022-10-20T12:08:43.618Z,18.20
2022-10-20T12:11:17.342Z,18.20
2022-10-20T12:13:55.839Z,18.40
2022-10-20T12:17:00.955Z,18.60
2022-10-20T12:19:30.479Z,18.80
2022-10-20T12:22:01.743Z,18.90
2022-10-20T12:24:36.272Z,19.20
2022-10-20T12:27:20.534Z,19.40
2022-10-20T12:30:00.054Z,19.50
2022-10-20T12:32:54.534Z,19.50
2022-10-20T12:35:58.242Z,19.60
2022-10-20T12:38:28.426Z,19.60
2022-10-20T12:41:03.525Z,19.40
2022-10-20T12:43:34.935Z,19.40
2022-10-20T12:46:12.081Z,19.10
2022-10-20T12:48:46.999Z,19.10
2022-10-20T12:51:22.758Z,19.10
2022-10-20T12:54:02.223Z,19.20
2022-10-20T12:56:37.096Z,19.30
2022-10-20T12:59:24.839Z,19.20
2022-10-20T13:02:35.191Z,19.00
2022-10-20T13:05:24.501Z,18.90
2022-10-20T13:08:17.162Z,18.70
2022-10-20T13:10:47.071Z,18.70
2022-10-20T13:13:51.865Z,18.80
2022-10-20T13:16:22.957Z,18.80
2022-10-20T13:18:53.485Z,18.70
2022-10-20T13:21:33.866Z,18.70
2022-10-20T13:24:16.030Z,18.70
2022-10-20T13:26:51.174Z,18.60
2022-10-20T13:29:23.371Z,18.40
2022-10-20T13:32:03.688Z,18.40
2022-10-20T13:34:38.922Z,18.30
2022-10-20T13:37:23.732Z,18.40
2022-10-20T13:40:04.223Z,18.40
2022-10-20T13:42:48.905Z,18.40
2022-10-20T13:45:26.256Z,18.40
2022-10-20T13:48:05.730Z,18.50
2022-10-20T13:50:36.437Z,18.60
2022-10-20T13:53:11.067Z,18.60
2022-10-20T13:55:58.329Z,18.60
2022-10-20T13:58:28.082Z,18.60
2022-10-20T14:01:02.571Z,18.70
2022-10-20T14:03:32.686Z,18.70
2022-10-20T14:06:00.660Z,18.80
2022-10-20T14:08:28.812Z,18.90
2022-10-20T14:10:59.424Z,18.90
2022-10-20T14:13:32.241Z,18.90
2022-10-20T14:16:01.170Z,18.90
2022-10-20T14:18:31.506Z,18.90
2022-10-20T14:21:02.611Z,18.90
2022-10-20T14:23:35.772Z,18.90
2022-10-20T14:26:05.273Z,19.00
2022-10-20T14:28:36.959Z,18.90
2022-10-20T14:31:06.432Z,18.90
2022-10-20T14:33:37.513Z,18.90
2022-10-20T14:36:06.299Z,18.80
2022-10-20T14:38:37.787Z,18.60
2022-10-20T14:41:07.730Z,18.50
2022-10-20T14:43:40.491Z,18.40
2022-10-20T14:46:10.993Z,18.20
2022-10-20T14:48:42.676Z,18.20
2022-10-20T14:51:31.224Z,18.00
2022-10-20T14:54:26.683Z,18.10
2022-10-20T14:56:56.480Z,18.10
2022-10-20T14:59:27.791Z,18.10
2022-10-20T15:02:08.017Z,18.00
2022-10-20T15:04:37.049Z,18.00
2022-10-20T15:07:07.158Z,17.80
2022-10-20T15:09:40.665Z,17.70
2022-10-20T15:12:16.201Z,17.70
2022-10-20T15:14:48.150Z,17.50
2022-10-20T15:17:36.780Z,17.50
2022-10-20T15:20:34.054Z,17.50
2022-10-20T15:23:04.046Z,17.50
2022-10-20T15:25:35.941Z,17.40
2022-10-20T15:28:03.906Z,17.30
2022-10-20T15:30:33.491Z,17.10
2022-10-20T15:33:01.617Z,17.00
2022-10-20T15:35:31.018Z,17.00
2022-10-20T15:37:59.072Z,16.60
2022-10-20T15:40:26.940Z,16.50
2022-10-20T15:42:55.318Z,16.40
2022-10-20T15:45:26.054Z,16.40
2022-10-20T15:47:55.244Z,16.40
2022-10-20T15:50:24.875Z,16.20
2022-10-20T15:52:54.398Z,16.10
2022-10-20T15:55:26.252Z,15.90
2022-10-20T15:57:55.834Z,16.00
2022-10-20T16:00:25.782Z,16.00
2022-10-20T16:02:55.165Z,15.90
2022-10-20T16:05:25.115Z,15.90
2022-10-20T16:07:54.276Z,15.80
2022-10-20T16:10:23.401Z,15.70
2022-10-20T16:12:51.570Z,15.70
2022-10-20T16:15:19.785Z,15.50
2022-10-20T16:20:17.295Z,15.40
2022-10-20T16:22:45.294Z,15.50
2022-10-20T16:25:13.146Z,15.30
2022-10-20T16:27:41.232Z,15.40
2022-10-20T16:30:10.044Z,15.10
2022-10-20T16:32:38.754Z,15.10
2022-10-20T16:35:07.934Z,15.20
2022-10-20T16:37:37.719Z,15.20
2022-10-20T16:40:06.923Z,15.20
2022-10-20T16:42:34.809Z,15.20
2022-10-20T16:45:02.935Z,15.10
2022-10-20T16:47:30.852Z,15.20
2022-10-20T16:49:58.883Z,15.20
2022-10-20T16:52:26.968Z,15.10
2022-10-20T16:54:56.700Z,15.10
2022-10-20T16:57:24.684Z,15.10
2022-10-20T16:59:52.648Z,15.00
2022-10-20T17:02:20.892Z,15.00
2022-10-20T17:04:49.704Z,15.00
2022-10-20T17:07:18.119Z,15.10
2022-10-20T17:09:47.008Z,15.20
2022-10-20T17:12:16.265Z,15.20
2022-10-20T17:14:44.276Z,15.00
2022-10-20T17:17:12.174Z,14.90
2022-10-20T17:19:40.939Z,14.70
2022-10-20T17:24:39.108Z,14.90
2022-10-20T17:27:07.151Z,15.00
2022-10-20T17:29:36.788Z,15.00
2022-10-20T17:32:04.734Z,14.90
2022-10-20T17:34:32.857Z,14.90
2022-10-20T17:37:00.775Z,15.00
2022-10-20T17:39:28.572Z,15.00
2022-10-20T17:41:56.616Z,15.00
2022-10-20T17:44:24.692Z,15.10
2022-10-20T17:46:53.923Z,15.10
2022-10-20T17:49:22.068Z,15.10
2022-10-20T17:51:49.988Z,15.10
2022-10-20T17:54:18.740Z,15.00
2022-10-20T17:56:47.976Z,15.00
2022-10-20T17:59:15.936Z,15.20
2022-10-20T18:01:43.938Z,15.10
2022-10-20T18:04:15.547Z,15.10
2022-10-20T18:06:44.348Z,15.00
2022-10-20T18:09:14.913Z,14.90
2022-10-20T18:11:46.531Z,15.00
2022-10-20T18:14:14.727Z,15.10
2022-10-20T18:16:43.668Z,14.90
2022-10-20T18:19:15.809Z,14.90
2022-10-20T18:21:44.294Z,14.70
2022-10-20T18:24:15.792Z,14.70
2022-10-20T18:26:43.977Z,14.60
2022-10-20T18:29:14.231Z,14.70
2022-10-20T18:31:45.143Z,14.80
2022-10-20T18:34:17.244Z,14.80
2022-10-20T18:36:45.915Z,14.80
2022-10-20T18:39:15.234Z,14.70
2022-10-20T18:41:45.457Z,14.90
2022-10-20T18:44:15.963Z,14.80
2022-10-20T18:46:43.994Z,14.80
2022-10-20T18:49:15.516Z,14.80
2022-10-20T18:51:43.725Z,14.90
2022-10-20T18:54:13.414Z,14.90
2022-10-20T18:56:42.868Z,14.80
2022-10-20T18:59:14.162Z,14.80
2022-10-20T19:01:42.561Z,14.80
2022-10-20T19:04:11.912Z,14.90
2022-10-20T19:06:42.858Z,15.00
2022-10-20T19:09:14.482Z,14.80
2022-10-20T19:11:43.198Z,14.80
2022-10-20T19:14:11.994Z,14.80
2022-10-20T19:16:41.843Z,14.90
2022-10-20T19:19:10.483Z,14.90
2022-10-20T19:21:38.698Z,15.00
2022-10-20T19:24:10.135Z,14.80
2022-10-20T19:26:40.427Z,14.70
2022-10-20T19:29:10.904Z,14.60
2022-10-20T19:31:41.214Z,14.50
2022-10-20T19:34:11.166Z,14.30
2022-10-20T19:36:42.013Z,14.30
2022-10-20T19:39:12.659Z,14.40
2022-10-20T19:41:41.369Z,14.30
2022-10-20T19:44:12.516Z,14.30
2022-10-20T19:46:40.725Z,14.10
2022-10-20T19:49:09.073Z,14.00
2022-10-20T19:51:37.087Z,14.10
2022-10-20T19:54:05.126Z,14.00
2022-10-20T19:56:35.798Z,14.10
2022-10-20T19:59:05.078Z,14.10
2022-10-20T20:01:33.355Z,14.00
2022-10-20T20:04:01.430Z,14.20
2022-10-20T20:06:29.484Z,14.10
2022-10-20T20:08:59.751Z,14.10
2022-10-20T20:11:30.773Z,14.10
2022-10-20T20:14:02.205Z,14.10
2022-10-20T20:16:30.984Z,14.10
2022-10-20T20:18:59.448Z,14.10
2022-10-20T20:21:27.739Z,14.10
2022-10-20T20:24:00.686Z,14.10
2022-10-20T20:26:30.167Z,14.10
2022-10-20T20:28:59.683Z,14.10
2022-10-20T20:31:28.358Z,14.10
2022-10-20T20:33:58.456Z,14.10
2022-10-20T20:36:27.882Z,14.10
2022-10-20T20:38:57.413Z,14.10
2022-10-20T20:41:27.355Z,14.00
2022-10-20T20:43:55.534Z,14.10
2022-10-20T20:46:28.862Z,14.00
2022-10-20T20:48:56.598Z,14.00
2022-10-20T20:51:25.307Z,14.10
2022-10-20T20:53:53.261Z,14.10
2022-10-20T20:56:23.146Z,14.00
2022-10-20T20:58:55.419Z,14.00
2022-10-20T21:01:27.369Z,13.90
2022-10-20T21:03:56.275Z,14.00
2022-10-20T21:06:33.407Z,14.00
2022-10-20T21:09:07.101Z,13.90
2022-10-20T21:11:35.191Z,13.90
2022-10-20T21:14:03.122Z,13.90
2022-10-20T21:16:34.786Z,13.90
2022-10-20T21:19:05.081Z,13.80
2022-10-20T21:21:35.849Z,13.80
2022-10-20T21:24:05.804Z,13.80
2022-10-20T21:26:34.641Z,13.80
2022-10-20T21:29:02.606Z,13.70
2022-10-20T21:31:32.216Z,13.70
2022-10-20T21:34:02.273Z,13.60
2022-10-20T21:36:32.413Z,13.70
2022-10-20T21:39:00.570Z,13.70
2022-10-20T21:41:30.662Z,13.70
2022-10-20T21:44:00.694Z,13.70
2022-10-20T21:46:30.543Z,13.70
2022-10-20T21:49:01.644Z,13.60
2022-10-20T21:51:31.973Z,13.60
2022-10-20T21:54:01.423Z,13.60
2022-10-20T21:56:29.748Z,13.50
2022-10-20T21:58:57.875Z,13.60
2022-10-20T22:01:27.013Z,13.60
2022-10-20T22:03:55.754Z,13.60
2022-10-20T22:06:27.287Z,13.60
2022-10-20T22:08:57.283Z,13.70
2022-10-20T22:11:27.281Z,13.70
2022-10-20T22:13:55.984Z,13.70
2022-10-20T22:16:26.424Z,13.70
2022-10-20T22:18:57.241Z,13.80
2022-10-20T22:21:27.603Z,13.80
2022-10-20T22:23:57.127Z,13.80
2022-10-20T22:26:27.287Z,13.80
2022-10-20T22:28:55.385Z,13.90
2022-10-20T22:31:24.027Z,13.90
2022-10-20T22:33:52.422Z,13.90
2022-10-20T22:36:20.951Z,13.90
2022-10-20T22:38:50.252Z,13.90
2022-10-20T22:41:18.444Z,13.80
2022-10-20T22:43:46.287Z,13.90
2022-10-20T22:46:16.251Z,14.00
2022-10-20T22:48:46.128Z,14.00
2022-10-20T22:51:14.797Z,13.90
2022-10-20T22:53:43.343Z,13.90
2022-10-20T22:56:14.204Z,13.80
2022-10-20T22:58:43.655Z,13.80
2022-10-20T23:01:14.224Z,13.90
2022-10-20T23:03:42.266Z,13.90
2022-10-20T23:06:13.187Z,13.90
2022-10-20T23:08:43.045Z,13.90
2022-10-20T23:11:12.524Z,13.90
